Pagina principale
METAR-TAF:

METAR-TAF

Aeroporti :

Sion, Svizzera

latitudine: 46-13N, longitudine: 007-20E, altezza: 482 m

Osservazione

Il bollettino è stato emesso 39 minuti fa, alle 19:50 UTC
Vento 2 kt da direzioni variabili
Temperature 22°C
Umidità 53%
Pressione 1019 hPa
Visibilità 10 km o più
nessuna nube inferiore a 1500 m e nessun cumulonembo

METAR: LSGS 161950Z AUTO VRB02KT CAVOK 22/12 Q1019

Ora: 22:29 (20:29 UTC)

Previsione

Il bollettino è stato emesso 6 ore e 4 minuti fa, alle 14:25 UTC
Previsione valida dal 16 alle 15 UTC al 16 alle 24 UTC
Vento 10 kt da ovest/sud-ovest
Visibilità 10 km o più
Poco nuvoloso ad un'altezza di 10000 ft
Evoluzione graduale
dal 16 alle 17 UTC al 16 alle 19 UTC
Vento 3 kt da direzioni variabili
Visibilità 10 km o più
nessuna nube inferiore a 1500 m e nessun cumulonembo

TAF: LSGS 161425Z 1615/1624 25010KT 9999 FEW100 BECMG 1617/1619 VRB03KT CAVOK

Osservazioni e previsioni meteorologiche di più di 4000 aeroporti (messaggi METAR e TAF).

Le stazioni disponibili sono rappresentate dai dischi gialli e rossi sulla carta.

Puntare il mouse per vedere il nome della stazione.

Clicca sopra per visualizzare le osservazioni e previsioni meteorologiche.

Per cambiare la mappa : fare clic sui pulsanti verdi con una croce nera per ingrandire, il pulsante verde con un trattino per diminuire, o sulla freccia verde per le mappe adiacenti.


METAR-TAF: